sensor_id;sensor_type;location;lat;lon;timestamp;pressure;altitude;pressure_sealevel;temperature;humidity
60170;BME280;46042;49.444;6.862;2023-02-03T00:01:26;99965.44;;;4.53;100.00
60170;BME280;46042;49.444;6.862;2023-02-03T00:03:53;99963.69;;;4.54;100.00
60170;BME280;46042;49.444;6.862;2023-02-03T00:06:20;99970.63;;;4.55;100.00
60170;BME280;46042;49.444;6.862;2023-02-03T00:08:47;99977.56;;;4.56;100.00
60170;BME280;46042;49.444;6.862;2023-02-03T00:11:14;99978.38;;;4.58;100.00
60170;BME280;46042;49.444;6.862;2023-02-03T00:13:41;99976.72;;;4.55;100.00
60170;BME280;46042;49.444;6.862;2023-02-03T00:16:07;99975.00;;;4.54;100.00
60170;BME280;46042;49.444;6.862;2023-02-03T00:18:34;99976.66;;;4.57;100.00
60170;BME280;46042;49.444;6.862;2023-02-03T00:21:00;99975.88;;;4.53;100.00
60170;BME280;46042;49.444;6.862;2023-02-03T00:23:27;99975.88;;;4.53;100.00
60170;BME280;46042;49.444;6.862;2023-02-03T00:26:05;99978.53;;;4.52;100.00
60170;BME280;46042;49.444;6.862;2023-02-03T00:28:31;99980.25;;;4.51;100.00
60170;BME280;46042;49.444;6.862;2023-02-03T00:30:58;99963.78;;;4.49;100.00
60170;BME280;46042;49.444;6.862;2023-02-03T00:33:25;99968.09;;;4.52;100.00
60170;BME280;46042;49.444;6.862;2023-02-03T00:35:51;99955.09;;;4.49;100.00
60170;BME280;46042;49.444;6.862;2023-02-03T00:38:18;99945.56;;;4.48;100.00
60170;BME280;46042;49.444;6.862;2023-02-03T00:40:52;99958.59;;;4.48;100.00
60170;BME280;46042;49.444;6.862;2023-02-03T00:43:20;99949.97;;;4.43;100.00
60170;BME280;46042;49.444;6.862;2023-02-03T00:45:46;99953.47;;;4.43;100.00
60170;BME280;46042;49.444;6.862;2023-02-03T00:48:13;99957.78;;;4.46;100.00
60170;BME280;46042;49.444;6.862;2023-02-03T00:50:40;99973.38;;;4.47;100.00
60170;BME280;46042;49.444;6.862;2023-02-03T00:53:07;99976.88;;;4.46;100.00
60170;BME280;46042;49.444;6.862;2023-02-03T00:55:33;99973.44;;;4.44;100.00
60170;BME280;46042;49.444;6.862;2023-02-03T00:58:00;99959.53;;;4.44;100.00
60170;BME280;46042;49.444;6.862;2023-02-03T01:00:27;99957.78;;;4.44;100.00
60170;BME280;46042;49.444;6.862;2023-02-03T01:02:53;99942.97;;;4.45;100.00
60170;BME280;46042;49.444;6.862;2023-02-03T01:05:20;99944.84;;;4.39;100.00
60170;BME280;46042;49.444;6.862;2023-02-03T01:07:47;99949.13;;;4.42;100.00
60170;BME280;46042;49.444;6.862;2023-02-03T01:10:13;99948.31;;;4.40;100.00
60170;BME280;46042;49.444;6.862;2023-02-03T01:12:41;99943.13;;;4.38;100.00
60170;BME280;46042;49.444;6.862;2023-02-03T01:15:08;99937.00;;;4.39;100.00
60170;BME280;46042;49.444;6.862;2023-02-03T01:17:34;99939.63;;;4.39;100.00
60170;BME280;46042;49.444;6.862;2023-02-03T01:20:01;99933.56;;;4.39;100.00
60170;BME280;46042;49.444;6.862;2023-02-03T01:22:29;99920.50;;;4.39;100.00
60170;BME280;46042;49.444;6.862;2023-02-03T01:24:56;99919.63;;;4.38;100.00
60170;BME280;46042;49.444;6.862;2023-02-03T01:27:22;99919.69;;;4.37;100.00
60170;BME280;46042;49.444;6.862;2023-02-03T01:29:49;99919.63;;;4.40;100.00
60170;BME280;46042;49.444;6.862;2023-02-03T01:32:15;99908.38;;;4.35;100.00
60170;BME280;46042;49.444;6.862;2023-02-03T01:34:42;99897.94;;;4.35;100.00
60170;BME280;46042;49.444;6.862;2023-02-03T01:37:09;99892.72;;;4.35;100.00
60170;BME280;46042;49.444;6.862;2023-02-03T01:39:35;99872.72;;;4.37;100.00
60170;BME280;46042;49.444;6.862;2023-02-03T01:42:02;99858.81;;;4.36;100.00
60170;BME280;46042;49.444;6.862;2023-02-03T01:44:39;99856.19;;;4.38;100.00
60170;BME280;46042;49.444;6.862;2023-02-03T01:52:23;99864.97;;;4.32;100.00
60170;BME280;46042;49.444;6.862;2023-02-03T01:54:51;99865.81;;;4.33;100.00
60170;BME280;46042;49.444;6.862;2023-02-03T01:57:23;99866.66;;;4.35;100.00
60170;BME280;46042;49.444;6.862;2023-02-03T01:59:53;99859.72;;;4.34;100.00
60170;BME280;46042;49.444;6.862;2023-02-03T02:02:21;99859.75;;;4.32;100.00
60170;BME280;46042;49.444;6.862;2023-02-03T02:05:02;99858.13;;;4.26;100.00
60170;BME280;46042;49.444;6.862;2023-02-03T02:07:31;99858.97;;;4.27;100.00
60170;BME280;46042;49.444;6.862;2023-02-03T02:09:58;99870.28;;;4.27;100.00
60170;BME280;46042;49.444;6.862;2023-02-03T02:12:26;99871.19;;;4.26;100.00
60170;BME280;46042;49.444;6.862;2023-02-03T02:14:53;99862.47;;;4.26;100.00
60170;BME280;46042;49.444;6.862;2023-02-03T02:17:27;99863.34;;;4.26;100.00
60170;BME280;46042;49.444;6.862;2023-02-03T02:31:09;99870.28;;;4.29;100.00
60170;BME280;46042;49.444;6.862;2023-02-03T02:33:55;99866.78;;;4.29;100.00
60170;BME280;46042;49.444;6.862;2023-02-03T02:39:31;99858.88;;;4.32;100.00
60170;BME280;46042;49.444;6.862;2023-02-03T02:42:55;99858.88;;;4.32;100.00
60170;BME280;46042;49.444;6.862;2023-02-03T02:45:23;99871.03;;;4.34;100.00
60170;BME280;46042;49.444;6.862;2023-02-03T02:48:00;99878.03;;;4.32;100.00
60170;BME280;46042;49.444;6.862;2023-02-03T02:50:33;99869.31;;;4.33;100.00
60170;BME280;46042;49.444;6.862;2023-02-03T02:53:02;99880.63;;;4.32;100.00
60170;BME280;46042;49.444;6.862;2023-02-03T02:55:31;99892.72;;;4.35;100.00
60170;BME280;46042;49.444;6.862;2023-02-03T02:58:06;99891.00;;;4.35;100.00
60170;BME280;46042;49.444;6.862;2023-02-03T03:00:34;99910.06;;;4.39;100.00
60170;BME280;46042;49.444;6.862;2023-02-03T03:03:22;99915.25;;;4.40;100.00
60170;BME280;46042;49.444;6.862;2023-02-03T03:06:26;99922.19;;;4.41;100.00
60170;BME280;46042;49.444;6.862;2023-02-03T03:09:00;99903.97;;;4.40;100.00
60170;BME280;46042;49.444;6.862;2023-02-03T03:11:32;99897.88;;;4.39;100.00
60170;BME280;46042;49.444;6.862;2023-02-03T03:14:01;99906.56;;;4.40;100.00
60170;BME280;46042;49.444;6.862;2023-02-03T03:16:32;99911.75;;;4.41;100.00
60170;BME280;46042;49.444;6.862;2023-02-03T03:19:09;99917.00;;;4.40;100.00
60170;BME280;46042;49.444;6.862;2023-02-03T03:21:45;99921.34;;;4.41;100.00
60170;BME280;46042;49.444;6.862;2023-02-03T03:24:17;99916.13;;;4.41;100.00
60170;BME280;46042;49.444;6.862;2023-02-03T03:26:52;99914.31;;;4.43;100.00
60170;BME280;46042;49.444;6.862;2023-02-03T03:29:25;99908.28;;;4.41;100.00
60170;BME280;46042;49.444;6.862;2023-02-03T03:31:55;99914.31;;;4.43;100.00
60170;BME280;46042;49.444;6.862;2023-02-03T03:34:21;99922.22;;;4.40;100.00
60170;BME280;46042;49.444;6.862;2023-02-03T03:37:03;99914.34;;;4.41;100.00
60170;BME280;46042;49.444;6.862;2023-02-03T03:39:46;99908.31;;;4.39;100.00
60170;BME280;46042;49.444;6.862;2023-02-03T03:45:17;99910.91;;;4.39;100.00
60170;BME280;46042;49.444;6.862;2023-02-03T03:50:18;99892.66;;;4.39;100.00
60170;BME280;46042;49.444;6.862;2023-02-03T03:52:48;99890.03;;;4.39;100.00
60170;BME280;46042;49.444;6.862;2023-02-03T03:55:17;99889.19;;;4.39;100.00
60170;BME280;46042;49.444;6.862;2023-02-03T03:58:00;99879.59;;;4.41;100.00
60170;BME280;46042;49.444;6.862;2023-02-03T04:00:31;99884.81;;;4.39;100.00
60170;BME280;46042;49.444;6.862;2023-02-03T04:03:04;99889.16;;;4.40;100.00
60170;BME280;46042;49.444;6.862;2023-02-03T04:05:33;99887.44;;;4.39;100.00
60170;BME280;46042;49.444;6.862;2023-02-03T04:08:00;99877.06;;;4.38;100.00
60170;BME280;46042;49.444;6.862;2023-02-03T04:10:36;99877.88;;;4.38;100.00
60170;BME280;46042;49.444;6.862;2023-02-03T04:13:04;99867.50;;;4.37;100.00
60170;BME280;46042;49.444;6.862;2023-02-03T04:15:31;99869.25;;;4.36;100.00
60170;BME280;46042;49.444;6.862;2023-02-03T04:17:58;99877.94;;;4.37;100.00
60170;BME280;46042;49.444;6.862;2023-02-03T04:20:27;99884.91;;;4.35;100.00
60170;BME280;46042;49.444;6.862;2023-02-03T04:22:55;99893.53;;;4.38;100.00
60170;BME280;46042;49.444;6.862;2023-02-03T04:25:22;99903.97;;;4.38;100.00
60170;BME280;46042;49.444;6.862;2023-02-03T04:27:49;99901.38;;;4.38;100.00
60170;BME280;46042;49.444;6.862;2023-02-03T04:30:16;99914.47;;;4.37;100.00
60170;BME280;46042;49.444;6.862;2023-02-03T04:32:44;99899.66;;;4.37;100.00
60170;BME280;46042;49.444;6.862;2023-02-03T04:35:12;99903.09;;;4.39;100.00
60170;BME280;46042;49.444;6.862;2023-02-03T04:37:38;99902.25;;;4.37;100.00
60170;BME280;46042;49.444;6.862;2023-02-03T04:40:06;99913.50;;;4.41;100.00
60170;BME280;46042;49.444;6.862;2023-02-03T04:42:32;99907.47;;;4.39;100.00
60170;BME280;46042;49.444;6.862;2023-02-03T04:44:59;99914.41;;;4.38;100.00
60170;BME280;46042;49.444;6.862;2023-02-03T04:47:25;99916.19;;;4.38;100.00
60170;BME280;46042;49.444;6.862;2023-02-03T04:49:52;99907.47;;;4.39;100.00
60170;BME280;46042;49.444;6.862;2023-02-03T04:52:19;99906.59;;;4.38;100.00
60170;BME280;46042;49.444;6.862;2023-02-03T04:54:45;99919.69;;;4.35;100.00
60170;BME280;46042;49.444;6.862;2023-02-03T04:57:12;99923.19;;;4.34;100.00
60170;BME280;46042;49.444;6.862;2023-02-03T04:59:38;99921.41;;;4.36;100.00
60170;BME280;46042;49.444;6.862;2023-02-03T05:02:05;99917.09;;;4.35;100.00
60170;BME280;46042;49.444;6.862;2023-02-03T05:04:33;99911.88;;;4.35;100.00
60170;BME280;46042;49.444;6.862;2023-02-03T05:07:00;99920.53;;;4.37;100.00
60170;BME280;46042;49.444;6.862;2023-02-03T05:09:27;99902.34;;;4.34;100.00
60170;BME280;46042;49.444;6.862;2023-02-03T05:11:54;99902.28;;;4.36;100.00
60170;BME280;46042;49.444;6.862;2023-02-03T05:14:20;99898.81;;;4.35;100.00
60170;BME280;46042;49.444;6.862;2023-02-03T05:16:47;99897.19;;;4.31;100.00
60170;BME280;46042;49.444;6.862;2023-02-03T05:19:13;99899.81;;;4.30;100.00
60170;BME280;46042;49.444;6.862;2023-02-03T05:21:40;99898.06;;;4.30;100.00
60170;BME280;46042;49.444;6.862;2023-02-03T05:24:06;99899.81;;;4.30;100.00
60170;BME280;46042;49.444;6.862;2023-02-03T05:26:34;99890.25;;;4.29;100.00
60170;BME280;46042;49.444;6.862;2023-02-03T05:29:01;99905.06;;;4.28;100.00
60170;BME280;46042;49.444;6.862;2023-02-03T05:31:28;99906.72;;;4.32;100.00
60170;BME280;46042;49.444;6.862;2023-02-03T05:33:54;99900.69;;;4.30;100.00
60170;BME280;46042;49.444;6.862;2023-02-03T05:36:21;99862.47;;;4.27;100.00
60170;BME280;46042;49.444;6.862;2023-02-03T05:38:48;99883.34;;;4.26;100.00
60170;BME280;46042;49.444;6.862;2023-02-03T05:41:14;99884.16;;;4.30;100.00
60170;BME280;46042;49.444;6.862;2023-02-03T05:43:59;99880.75;;;4.26;100.00
60170;BME280;46042;49.444;6.862;2023-02-03T05:46:26;99878.03;;;4.31;100.00
60170;BME280;46042;49.444;6.862;2023-02-03T05:48:52;99884.19;;;4.28;100.00
60170;BME280;46042;49.444;6.862;2023-02-03T05:51:19;99889.41;;;4.28;100.00
60170;BME280;46042;49.444;6.862;2023-02-03T05:53:46;99893.75;;;4.27;100.00
60170;BME280;46042;49.444;6.862;2023-02-03T05:56:12;99896.38;;;4.27;100.00
60170;BME280;46042;49.444;6.862;2023-02-03T05:58:39;99890.31;;;4.25;100.00
60170;BME280;46042;49.444;6.862;2023-02-03T06:01:05;99886.81;;;4.26;100.00
60170;BME280;46042;49.444;6.862;2023-02-03T06:03:32;99879.91;;;4.24;100.00
60170;BME280;46042;49.444;6.862;2023-02-03T06:05:59;99883.34;;;4.27;100.00
60170;BME280;46042;49.444;6.862;2023-02-03T06:08:26;99886.00;;;4.24;100.00
60170;BME280;46042;49.444;6.862;2023-02-03T06:10:58;99878.19;;;4.24;100.00
60170;BME280;46042;49.444;6.862;2023-02-03T06:13:26;99880.75;;;4.26;100.00
60170;BME280;46042;49.444;6.862;2023-02-03T06:15:53;99881.63;;;4.25;100.00
60170;BME280;46042;49.444;6.862;2023-02-03T06:18:20;99871.25;;;4.23;100.00
60170;BME280;46042;49.444;6.862;2023-02-03T06:20:46;99879.03;;;4.25;100.00
60170;BME280;46042;49.444;6.862;2023-02-03T06:23:13;99876.41;;;4.25;100.00
60170;BME280;46042;49.444;6.862;2023-02-03T06:25:42;99876.41;;;4.25;100.00
60170;BME280;46042;49.444;6.862;2023-02-03T06:28:09;99882.53;;;4.24;100.00
60170;BME280;46042;49.444;6.862;2023-02-03T06:30:35;99874.63;;;4.27;100.00
60170;BME280;46042;49.444;6.862;2023-02-03T06:33:02;99887.66;;;4.27;100.00
60170;BME280;46042;49.444;6.862;2023-02-03T06:35:29;99875.53;;;4.26;100.00
60170;BME280;46042;49.444;6.862;2023-02-03T06:37:56;99893.75;;;4.27;100.00
60170;BME280;46042;49.444;6.862;2023-02-03T06:40:23;99892.88;;;4.27;100.00
60170;BME280;46042;49.444;6.862;2023-02-03T06:42:49;99885.06;;;4.27;100.00
60170;BME280;46042;49.444;6.862;2023-02-03T06:45:16;99885.03;;;4.29;100.00
60170;BME280;46042;49.444;6.862;2023-02-03T06:47:44;99886.81;;;4.26;100.00
60170;BME280;46042;49.444;6.862;2023-02-03T06:50:13;99889.41;;;4.28;100.00
60170;BME280;46042;49.444;6.862;2023-02-03T06:52:40;99878.09;;;4.29;100.00
60170;BME280;46042;49.444;6.862;2023-02-03T06:55:07;99884.19;;;4.28;100.00
60170;BME280;46042;49.444;6.862;2023-02-03T06:57:34;99886.81;;;4.28;100.00
60170;BME280;46042;49.444;6.862;2023-02-03T07:00:01;99882.44;;;4.29;100.00
60170;BME280;46042;49.444;6.862;2023-02-03T07:02:27;99890.25;;;4.30;100.00
60170;BME280;46042;49.444;6.862;2023-02-03T07:04:54;99890.19;;;4.32;100.00
60170;BME280;46042;49.444;6.862;2023-02-03T07:07:21;99887.66;;;4.29;100.00
60170;BME280;46042;49.444;6.862;2023-02-03T07:09:47;99879.84;;;4.27;100.00
60170;BME280;46042;49.444;6.862;2023-02-03T07:12:14;99887.66;;;4.29;100.00
60170;BME280;46042;49.444;6.862;2023-02-03T07:14:41;99905.06;;;4.28;100.00
60170;BME280;46042;49.444;6.862;2023-02-03T07:17:07;99894.66;;;4.26;100.00
60170;BME280;46042;49.444;6.862;2023-02-03T07:19:34;99907.69;;;4.28;100.00
60170;BME280;46042;49.444;6.862;2023-02-03T07:22:00;99906.78;;;4.29;100.00
60170;BME280;46042;49.444;6.862;2023-02-03T07:24:27;99911.97;;;4.31;100.00
60170;BME280;46042;49.444;6.862;2023-02-03T07:26:53;99892.88;;;4.29;100.00
60170;BME280;46042;49.444;6.862;2023-02-03T07:29:20;99923.19;;;4.34;100.00
60170;BME280;46042;49.444;6.862;2023-02-03T07:31:47;99917.16;;;4.32;100.00
60170;BME280;46042;49.444;6.862;2023-02-03T07:34:13;99936.19;;;4.37;100.00
60170;BME280;46042;49.444;6.862;2023-02-03T07:36:40;99938.78;;;4.37;100.00
60170;BME280;46042;49.444;6.862;2023-02-03T07:39:07;99925.75;;;4.36;100.00
60170;BME280;46042;49.444;6.862;2023-02-03T07:41:33;99926.63;;;4.36;100.00
60170;BME280;46042;49.444;6.862;2023-02-03T07:44:00;99918.75;;;4.39;100.00
60170;BME280;46042;49.444;6.862;2023-02-03T07:46:27;99928.34;;;4.37;100.00
60170;BME280;46042;49.444;6.862;2023-02-03T07:48:54;99935.28;;;4.40;100.00
60170;BME280;46042;49.444;6.862;2023-02-03T07:51:20;99946.56;;;4.40;100.00
60170;BME280;46042;49.444;6.862;2023-02-03T07:53:47;99950.03;;;4.39;100.00
60170;BME280;46042;49.444;6.862;2023-02-03T07:56:14;99943.94;;;4.42;100.00
60170;BME280;46042;49.444;6.862;2023-02-03T07:58:40;99959.56;;;4.42;100.00
60170;BME280;46042;49.444;6.862;2023-02-03T08:01:15;99956.91;;;4.45;100.00
60170;BME280;46042;49.444;6.862;2023-02-03T08:03:42;99953.41;;;4.45;100.00
60170;BME280;46042;49.444;6.862;2023-02-03T08:06:09;99955.13;;;4.47;100.00
60170;BME280;46042;49.444;6.862;2023-02-03T08:08:36;99945.56;;;4.46;100.00
60170;BME280;46042;49.444;6.862;2023-02-03T08:11:02;99944.69;;;4.47;100.00
60170;BME280;46042;49.444;6.862;2023-02-03T08:13:29;99950.72;;;4.49;100.00
60170;BME280;46042;49.444;6.862;2023-02-03T08:15:56;99946.41;;;4.48;100.00
60170;BME280;46042;49.444;6.862;2023-02-03T08:18:22;99959.44;;;4.50;100.00
60170;BME280;46042;49.444;6.862;2023-02-03T08:20:49;99969.00;;;4.49;100.00
60170;BME280;46042;49.444;6.862;2023-02-03T08:23:16;99966.31;;;4.52;100.00
60170;BME280;46042;49.444;6.862;2023-02-03T08:25:42;99956.75;;;4.54;100.00
60170;BME280;46042;49.444;6.862;2023-02-03T08:28:09;99974.00;;;4.60;100.00
60170;BME280;46042;49.444;6.862;2023-02-03T08:30:36;99979.19;;;4.62;100.00
60170;BME280;46042;49.444;6.862;2023-02-03T08:33:02;99967.88;;;4.63;100.00
60170;BME280;46042;49.444;6.862;2023-02-03T08:35:29;99956.50;;;4.65;100.00
60170;BME280;46042;49.444;6.862;2023-02-03T08:37:57;99945.97;;;4.70;100.00
60170;BME280;46042;49.444;6.862;2023-02-03T08:40:23;99955.53;;;4.71;100.00
60170;BME280;46042;49.444;6.862;2023-02-03T08:42:50;99946.75;;;4.75;100.00
60170;BME280;46042;49.444;6.862;2023-02-03T08:45:17;99953.63;;;4.78;100.00
60170;BME280;46042;49.444;6.862;2023-02-03T08:47:43;99967.56;;;4.77;100.00
60170;BME280;46042;49.444;6.862;2023-02-03T08:50:11;99962.34;;;4.77;100.00
60170;BME280;46042;49.444;6.862;2023-02-03T08:52:39;99964.84;;;4.83;100.00
60170;BME280;46042;49.444;6.862;2023-02-03T08:55:06;99963.91;;;4.87;100.00
60170;BME280;46042;49.444;6.862;2023-02-03T08:57:34;99966.34;;;4.95;100.00
60170;BME280;46042;49.444;6.862;2023-02-03T09:00:01;99961.09;;;4.96;100.00
60170;BME280;46042;49.444;6.862;2023-02-03T09:02:28;99951.34;;;5.03;100.00
60170;BME280;46042;49.444;6.862;2023-02-03T09:04:55;99964.41;;;5.03;100.00
60170;BME280;46042;49.444;6.862;2023-02-03T09:07:22;99964.38;;;5.06;100.00
60170;BME280;46042;49.444;6.862;2023-02-03T09:09:48;99950.59;;;4.98;100.00
60170;BME280;46042;49.444;6.862;2023-02-03T09:12:15;99957.44;;;5.04;100.00
60170;BME280;46042;49.444;6.862;2023-02-03T09:14:42;99962.69;;;5.02;100.00
60170;BME280;46042;49.444;6.862;2023-02-03T09:17:09;99970.44;;;5.07;100.00
60170;BME280;46042;49.444;6.862;2023-02-03T09:19:36;99967.88;;;5.05;100.00
60170;BME280;46042;49.444;6.862;2023-02-03T09:22:03;99979.16;;;5.07;100.00
60170;BME280;46042;49.444;6.862;2023-02-03T09:24:30;99966.97;;;5.06;100.00
60170;BME280;46042;49.444;6.862;2023-02-03T09:26:56;99966.97;;;5.06;100.00
60170;BME280;46042;49.444;6.862;2023-02-03T09:29:23;99947.91;;;5.01;100.00
60170;BME280;46042;49.444;6.862;2023-02-03T09:31:50;99973.22;;;4.99;100.00
60170;BME280;46042;49.444;6.862;2023-02-03T09:34:20;99973.97;;;5.04;100.00
60170;BME280;46042;49.444;6.862;2023-02-03T09:36:47;99980.06;;;5.05;100.00
60170;BME280;46042;49.444;6.862;2023-02-03T09:39:14;99993.06;;;5.08;100.00
60170;BME280;46042;49.444;6.862;2023-02-03T09:47:09;99985.28;;;5.05;100.00
60170;BME280;46042;49.444;6.862;2023-02-03T09:49:41;99968.78;;;5.03;100.00
60170;BME280;46042;49.444;6.862;2023-02-03T09:57:28;99978.25;;;5.08;100.00
60170;BME280;46042;49.444;6.862;2023-02-03T09:59:58;99971.41;;;5.03;100.00
60170;BME280;46042;49.444;6.862;2023-02-03T10:02:48;99976.66;;;5.01;100.00
60170;BME280;46042;49.444;6.862;2023-02-03T10:18:54;99970.38;;;5.10;100.00
60170;BME280;46042;49.444;6.862;2023-02-03T10:21:46;99964.22;;;5.12;100.00
60170;BME280;46042;49.444;6.862;2023-02-03T10:24:45;99965.03;;;5.15;100.00
60170;BME280;46042;49.444;6.862;2023-02-03T10:27:18;99967.56;;;5.19;100.00
60170;BME280;46042;49.444;6.862;2023-02-03T10:29:55;99964.06;;;5.20;100.00
60170;BME280;46042;49.444;6.862;2023-02-03T10:32:25;99955.41;;;5.18;100.00
60170;BME280;46042;49.444;6.862;2023-02-03T10:34:52;99945.66;;;5.25;100.00
60170;BME280;46042;49.444;6.862;2023-02-03T10:37:36;99937.75;;;5.28;100.00
60170;BME280;46042;49.444;6.862;2023-02-03T10:40:11;99962.06;;;5.32;100.00
60170;BME280;46042;49.444;6.862;2023-02-03T10:42:39;99954.31;;;5.27;100.00
60170;BME280;46042;49.444;6.862;2023-02-03T10:45:26;99946.59;;;5.21;100.00
60170;BME280;46042;49.444;6.862;2023-02-03T10:47:54;99928.53;;;5.11;100.00
60170;BME280;46042;49.444;6.862;2023-02-03T10:50:24;99921.38;;;5.20;100.00
60170;BME280;46042;49.444;6.862;2023-02-03T10:53:19;99932.66;;;5.22;100.00
60170;BME280;46042;49.444;6.862;2023-02-03T10:56:14;99926.66;;;5.18;100.00
60170;BME280;46042;49.444;6.862;2023-02-03T10:58:57;99933.53;;;5.22;100.00
60170;BME280;46042;49.444;6.862;2023-02-03T11:01:40;99935.25;;;5.23;100.00
60170;BME280;46042;49.444;6.862;2023-02-03T11:06:54;99897.94;;;5.18;100.00
60170;BME280;46042;49.444;6.862;2023-02-03T11:09:30;99896.06;;;5.23;100.00
60170;BME280;46042;49.444;6.862;2023-02-03T11:12:18;99891.75;;;5.21;100.00
60170;BME280;46042;49.444;6.862;2023-02-03T11:14:50;99895.22;;;5.21;100.00
60170;BME280;46042;49.444;6.862;2023-02-03T11:17:25;99900.56;;;5.17;100.00
60170;BME280;46042;49.444;6.862;2023-02-03T11:19:55;99904.97;;;5.15;100.00
60170;BME280;46042;49.444;6.862;2023-02-03T11:22:31;99903.16;;;5.17;100.00
60170;BME280;46042;49.444;6.862;2023-02-03T11:25:03;99896.97;;;5.21;100.00
60170;BME280;46042;49.444;6.862;2023-02-03T11:27:32;99896.97;;;5.21;100.00
60170;BME280;46042;49.444;6.862;2023-02-03T11:30:24;99902.06;;;5.27;100.00
60170;BME280;46042;49.444;6.862;2023-02-03T11:32:52;99915.06;;;5.29;100.00
60170;BME280;46042;49.444;6.862;2023-02-03T11:35:27;99924.50;;;5.36;100.00
60170;BME280;46042;49.444;6.862;2023-02-03T11:37:59;99915.78;;;5.37;100.00
60170;BME280;46042;49.444;6.862;2023-02-03T11:40:28;99911.53;;;5.33;100.00
60170;BME280;46042;49.444;6.862;2023-02-03T11:45:37;99914.91;;;5.36;100.00
60170;BME280;46042;49.444;6.862;2023-02-03T11:48:24;99908.00;;;5.34;100.00
60170;BME280;46042;49.444;6.862;2023-02-03T11:51:31;99902.78;;;5.34;100.00
60170;BME280;46042;49.444;6.862;2023-02-03T11:56:53;99896.78;;;5.29;100.00
60170;BME280;46042;49.444;6.862;2023-02-03T12:14:06;99911.63;;;5.28;100.00
60170;BME280;46042;49.444;6.862;2023-02-03T12:22:38;99912.34;;;5.35;100.00
60170;BME280;46042;49.444;6.862;2023-02-03T12:30:24;99918.47;;;5.34;100.00
60170;BME280;46042;49.444;6.862;2023-02-03T12:33:00;99928.03;;;5.35;100.00
60170;BME280;46042;49.444;6.862;2023-02-03T12:35:37;99922.00;;;5.31;100.00
60170;BME280;46042;49.444;6.862;2023-02-03T12:41:01;99920.25;;;5.32;100.00
60170;BME280;46042;49.444;6.862;2023-02-03T12:43:49;99910.66;;;5.32;100.00
60170;BME280;46042;49.444;6.862;2023-02-03T12:46:30;99905.41;;;5.34;100.00
60170;BME280;46042;49.444;6.862;2023-02-03T12:51:50;99901.06;;;5.33;100.00
60170;BME280;46042;49.444;6.862;2023-02-03T12:59:39;99904.41;;;5.38;100.00
60170;BME280;46042;49.444;6.862;2023-02-03T13:02:18;99900.84;;;5.42;100.00
60170;BME280;46042;49.444;6.862;2023-02-03T13:04:53;99896.47;;;5.43;100.00
60170;BME280;46042;49.444;6.862;2023-02-03T13:07:43;99894.00;;;5.36;100.00
60170;BME280;46042;49.444;6.862;2023-02-03T13:10:21;99874.81;;;5.37;100.00
60170;BME280;46042;49.444;6.862;2023-02-03T13:12:55;99878.19;;;5.43;100.00
60170;BME280;46042;49.444;6.862;2023-02-03T13:15:31;99876.38;;;5.45;100.00
60170;BME280;46042;49.444;6.862;2023-02-03T13:18:07;99865.84;;;5.48;100.00
60170;BME280;46042;49.444;6.862;2023-02-03T13:20:37;99862.25;;;5.52;100.00
60170;BME280;46042;49.444;6.862;2023-02-03T13:23:05;99849.16;;;5.53;100.00
60170;BME280;46042;49.444;6.862;2023-02-03T13:34:02;99843.06;;;5.53;100.00
60170;BME280;46042;49.444;6.862;2023-02-03T13:41:55;99866.44;;;5.59;100.00
60170;BME280;46042;49.444;6.862;2023-02-03T13:44:33;99860.34;;;5.59;100.00
60170;BME280;46042;49.444;6.862;2023-02-03T13:47:02;99856.00;;;5.59;100.00
60170;BME280;46042;49.444;6.862;2023-02-03T13:49:34;99866.47;;;5.58;100.00
60170;BME280;46042;49.444;6.862;2023-02-03T13:52:02;99865.69;;;5.54;100.00
60170;BME280;46042;49.444;6.862;2023-02-03T13:54:36;99862.16;;;5.57;100.00
60170;BME280;46042;49.444;6.862;2023-02-03T13:57:16;99869.16;;;5.54;100.00
60170;BME280;46042;49.444;6.862;2023-02-03T13:59:45;99873.47;;;5.57;100.00
60170;BME280;46042;49.444;6.862;2023-02-03T14:07:33;99851.69;;;5.57;100.00
60170;BME280;46042;49.444;6.862;2023-02-03T14:20:42;99858.34;;;5.68;100.00
60170;BME280;46042;49.444;6.862;2023-02-03T14:23:15;99855.63;;;5.73;100.00
60170;BME280;46042;49.444;6.862;2023-02-03T14:25:47;99838.22;;;5.72;100.00
60170;BME280;46042;49.444;6.862;2023-02-03T14:28:19;99851.28;;;5.72;100.00
60170;BME280;46042;49.444;6.862;2023-02-03T14:31:11;99853.88;;;5.74;100.00
60170;BME280;46042;49.444;6.862;2023-02-03T14:34:07;99857.22;;;5.79;100.00
60170;BME280;46042;49.444;6.862;2023-02-03T14:58:44;99854.53;;;5.80;100.00
60170;BME280;46042;49.444;6.862;2023-02-03T15:06:48;99869.34;;;5.81;100.00
60170;BME280;46042;49.444;6.862;2023-02-03T15:09:23;99873.72;;;5.81;100.00
60170;BME280;46042;49.444;6.862;2023-02-03T15:11:51;99860.66;;;5.81;100.00
60170;BME280;46042;49.444;6.862;2023-02-03T15:17:02;99881.56;;;5.81;100.00
60170;BME280;46042;49.444;6.862;2023-02-03T15:19:34;99875.53;;;5.79;100.00
60170;BME280;46042;49.444;6.862;2023-02-03T15:22:21;99871.09;;;5.81;100.00
60170;BME280;46042;49.444;6.862;2023-02-03T15:24:57;99890.31;;;5.80;100.00
60170;BME280;46042;49.444;6.862;2023-02-03T15:27:29;99885.09;;;5.80;100.00
60170;BME280;46042;49.444;6.862;2023-02-03T15:29:56;99885.91;;;5.80;100.00
60170;BME280;46042;49.444;6.862;2023-02-03T15:32:34;99891.13;;;5.82;100.00
60170;BME280;46042;49.444;6.862;2023-02-03T15:35:06;99892.06;;;5.79;100.00
60170;BME280;46042;49.444;6.862;2023-02-03T15:37:50;99906.09;;;5.77;100.00
60170;BME280;46042;49.444;6.862;2023-02-03T15:40:20;99917.38;;;5.77;100.00
60170;BME280;46042;49.444;6.862;2023-02-03T15:46:23;99899.13;;;5.76;100.00
60170;BME280;46042;49.444;6.862;2023-02-03T15:48:34;99904.41;;;5.74;100.00
60170;BME280;46042;49.444;6.862;2023-02-03T15:51:14;99894.84;;;5.73;100.00
60170;BME280;46042;49.444;6.862;2023-02-03T15:56:38;99891.31;;;5.74;100.00
60170;BME280;46042;49.444;6.862;2023-02-03T16:01:56;99891.50;;;5.68;100.00